createdAt,value
2019-04-29T00:02:11.791Z,5.10
2019-04-29T00:04:41.230Z,3.67
2019-04-29T00:07:10.744Z,5.20
2019-04-29T00:09:40.179Z,4.33
2019-04-29T00:12:09.945Z,5.27
2019-04-29T00:14:41.090Z,7.00
2019-04-29T00:17:10.310Z,4.50
2019-04-29T00:19:56.986Z,7.37
2019-04-29T00:22:26.426Z,5.50
2019-04-29T00:24:55.853Z,5.10
2019-04-29T00:27:25.351Z,7.10
2019-04-29T00:29:54.809Z,3.70
2019-04-29T00:32:24.233Z,10.33
2019-04-29T00:34:53.691Z,5.10
2019-04-29T00:37:22.889Z,3.97
2019-04-29T00:40:09.562Z,5.67
2019-04-29T00:42:43.048Z,3.40
2019-04-29T00:45:12.895Z,4.40
2019-04-29T00:47:42.347Z,6.73
2019-04-29T00:50:12.411Z,4.90
2019-04-29T00:52:41.857Z,5.00
2019-04-29T00:55:13.013Z,4.93
2019-04-29T00:57:42.459Z,4.17
2019-04-29T01:00:15.563Z,4.83
2019-04-29T01:02:45.001Z,3.60
2019-04-29T01:05:14.533Z,10.43
2019-04-29T01:07:43.943Z,3.43
2019-04-29T01:10:13.772Z,3.90
2019-04-29T01:12:43.222Z,7.60
2019-04-29T01:15:12.924Z,5.30
2019-04-29T01:17:42.360Z,5.30
2019-04-29T01:20:12.805Z,3.47
2019-04-29T01:22:43.811Z,5.40
2019-04-29T01:25:13.356Z,6.50
2019-04-29T01:27:44.504Z,3.70
2019-04-29T01:30:41.014Z,3.93
2019-04-29T01:33:10.518Z,7.07
2019-04-29T01:35:39.961Z,6.30
2019-04-29T01:38:09.405Z,10.43
2019-04-29T01:40:49.016Z,4.50
2019-04-29T01:43:18.446Z,6.90
2019-04-29T01:45:47.890Z,4.20
2019-04-29T01:48:17.310Z,4.57
2019-04-29T01:50:46.756Z,4.10
2019-04-29T01:53:16.185Z,7.43
2019-04-29T01:55:45.611Z,5.70
2019-04-29T01:58:15.322Z,6.80
2019-04-29T02:00:44.752Z,5.40
2019-04-29T02:03:14.186Z,5.10
2019-04-29T02:05:43.622Z,7.50
2019-04-29T02:08:13.040Z,4.47
2019-04-29T02:10:42.496Z,7.43
2019-04-29T02:13:11.921Z,4.90
2019-04-29T02:15:41.394Z,5.00
2019-04-29T02:18:10.839Z,10.50
2019-04-29T02:20:40.513Z,4.97
2019-04-29T02:23:14.250Z,4.90
2019-04-29T02:25:47.981Z,5.17
2019-04-29T02:28:17.412Z,5.60
2019-04-29T02:30:50.146Z,4.27
2019-04-29T02:33:19.566Z,6.37
2019-04-29T02:35:48.998Z,4.10
2019-04-29T02:38:20.124Z,4.90
2019-04-29T02:40:53.866Z,6.10
2019-04-29T02:43:24.937Z,5.77
2019-04-29T02:45:54.387Z,18.47
2019-04-29T02:48:26.418Z,4.27
2019-04-29T02:50:54.986Z,5.00
2019-04-29T02:53:25.071Z,7.83
2019-04-29T02:55:56.144Z,5.10
2019-04-29T02:58:35.760Z,6.23
2019-04-29T03:01:22.391Z,4.83
2019-04-29T03:04:05.429Z,5.57
2019-04-29T03:06:35.170Z,7.97
2019-04-29T03:09:06.576Z,5.17
2019-04-29T03:11:36.004Z,4.10
2019-04-29T03:14:05.516Z,8.60
2019-04-29T03:16:35.092Z,4.50
2019-04-29T03:19:11.987Z,5.40
2019-04-29T03:21:43.127Z,4.27
2019-04-29T03:24:12.550Z,13.20
2019-04-29T03:26:42.003Z,5.60
2019-04-29T03:29:22.968Z,5.10
2019-04-29T03:31:53.791Z,5.37
2019-04-29T03:34:23.234Z,4.90
2019-04-29T03:36:52.741Z,5.50
2019-04-29T03:39:22.266Z,4.87
2019-04-29T03:41:51.757Z,4.57
2019-04-29T03:44:21.187Z,5.50
2019-04-29T03:46:50.700Z,6.00
2019-04-29T03:49:20.165Z,5.80
2019-04-29T03:51:49.596Z,5.00
2019-04-29T03:54:19.021Z,4.67
2019-04-29T03:56:48.443Z,4.80
2019-04-29T03:59:17.885Z,4.37
2019-04-29T04:01:51.371Z,5.00
2019-04-29T04:04:24.893Z,6.43
2019-04-29T04:06:58.590Z,4.90
2019-04-29T04:09:29.413Z,3.70
2019-04-29T04:11:58.856Z,4.80
2019-04-29T04:14:28.320Z,7.13
2019-04-29T04:16:59.386Z,6.97
2019-04-29T04:19:30.476Z,4.50
2019-04-29T04:21:59.923Z,8.73
2019-04-29T04:24:29.337Z,10.37
2019-04-29T04:26:58.810Z,11.37
2019-04-29T04:29:28.241Z,6.70
2019-04-29T04:31:57.672Z,9.37
2019-04-29T04:34:27.132Z,10.60
2019-04-29T04:37:00.256Z,6.20
2019-04-29T04:39:29.359Z,7.43
2019-04-29T04:41:58.794Z,7.17
2019-04-29T04:44:29.870Z,6.57
2019-04-29T04:46:59.344Z,9.20
2019-04-29T04:49:28.752Z,10.77
2019-04-29T04:51:58.191Z,10.23
2019-04-29T04:54:31.314Z,7.53
2019-04-29T04:56:58.796Z,8.70
2019-04-29T04:59:28.310Z,9.93
2019-04-29T05:01:57.761Z,6.87
2019-04-29T05:04:27.208Z,9.37
2019-04-29T05:06:56.642Z,7.47
2019-04-29T05:09:26.075Z,9.57
2019-04-29T05:11:55.521Z,6.40
2019-04-29T05:14:24.954Z,9.07
2019-04-29T05:16:54.411Z,11.07
2019-04-29T05:19:23.832Z,9.80
2019-04-29T05:21:53.264Z,6.50
2019-04-29T05:24:22.696Z,5.87
2019-04-29T05:26:52.149Z,7.90
2019-04-29T05:29:21.862Z,7.40
2019-04-29T05:31:51.292Z,6.97
2019-04-29T05:34:22.381Z,6.80
2019-04-29T05:36:53.471Z,6.10
2019-04-29T05:39:27.249Z,5.37
2019-04-29T05:41:56.706Z,10.43
2019-04-29T05:44:30.709Z,9.63
2019-04-29T05:47:18.072Z,7.30
2019-04-29T05:49:49.161Z,8.40
2019-04-29T05:52:20.263Z,6.17
2019-04-29T05:54:49.702Z,6.40
2019-04-29T05:57:20.469Z,6.50
2019-04-29T05:59:50.298Z,4.50
2019-04-29T06:02:19.726Z,5.30
2019-04-29T06:04:52.414Z,6.27
2019-04-29T06:07:21.510Z,8.90
2019-04-29T06:09:51.710Z,5.07
2019-04-29T06:12:21.149Z,9.80
2019-04-29T06:14:50.600Z,7.67
2019-04-29T06:17:20.031Z,6.73
2019-04-29T06:19:49.476Z,7.37
2019-04-29T06:22:18.922Z,6.37
2019-04-29T06:24:48.354Z,5.53
2019-04-29T06:27:17.784Z,6.00
2019-04-29T06:29:47.240Z,4.20
2019-04-29T06:32:20.204Z,5.50
2019-04-29T06:34:47.814Z,5.90
2019-04-29T06:37:17.308Z,4.83
2019-04-29T06:39:46.744Z,5.00
2019-04-29T06:42:19.571Z,5.33
2019-04-29T06:44:48.941Z,6.73
2019-04-29T06:47:18.509Z,8.20
2019-04-29T06:49:48.146Z,6.27
2019-04-29T06:52:17.607Z,7.70
2019-04-29T06:54:47.039Z,5.90
2019-04-29T06:57:16.463Z,6.53
2019-04-29T06:59:47.558Z,6.30
2019-04-29T07:02:17.071Z,9.17
2019-04-29T07:04:46.497Z,7.37
2019-04-29T07:07:15.975Z,5.20
2019-04-29T07:09:45.649Z,7.37
2019-04-29T07:12:15.096Z,7.40
2019-04-29T07:14:44.547Z,6.57
2019-04-29T07:17:14.083Z,6.73
2019-04-29T07:19:43.535Z,8.33
2019-04-29T07:22:12.972Z,8.50
2019-04-29T07:24:42.418Z,7.40
2019-04-29T07:27:11.828Z,5.90
2019-04-29T07:29:41.277Z,6.37
2019-04-29T07:32:10.817Z,6.90
2019-04-29T07:34:40.225Z,7.73
2019-04-29T07:37:09.676Z,6.83
2019-04-29T07:39:39.126Z,8.90
2019-04-29T07:42:08.558Z,7.30
2019-04-29T07:44:48.908Z,6.73
2019-04-29T07:47:16.692Z,9.10
2019-04-29T07:49:47.337Z,9.30
2019-04-29T07:52:17.294Z,8.50
2019-04-29T07:54:48.217Z,9.87
2019-04-29T07:57:18.118Z,9.07
2019-04-29T07:59:47.502Z,6.00
2019-04-29T08:02:16.931Z,10.40
2019-04-29T08:04:46.378Z,9.33
2019-04-29T08:07:16.552Z,7.27
2019-04-29T08:09:46.004Z,7.97
2019-04-29T08:12:16.198Z,7.43
2019-04-29T08:14:47.156Z,7.80
2019-04-29T08:17:16.604Z,7.40
2019-04-29T08:19:46.050Z,8.00
2019-04-29T08:22:18.212Z,10.30
2019-04-29T08:24:50.452Z,8.70
2019-04-29T08:27:17.794Z,9.03
2019-04-29T08:29:47.252Z,7.13
2019-04-29T08:32:16.690Z,7.10
2019-04-29T08:34:46.128Z,8.30
2019-04-29T08:37:15.571Z,7.10
2019-04-29T08:39:45.016Z,8.30
2019-04-29T08:42:16.167Z,7.53
2019-04-29T08:44:47.240Z,7.90
2019-04-29T08:47:23.590Z,6.37
2019-04-29T08:49:52.258Z,7.97
2019-04-29T08:52:21.701Z,8.40
2019-04-29T08:54:55.487Z,6.77
2019-04-29T08:57:22.320Z,8.63
2019-04-29T08:59:51.786Z,7.27
2019-04-29T09:02:33.662Z,6.80
2019-04-29T09:04:53.707Z,8.80
2019-04-29T09:07:23.499Z,7.60
2019-04-29T09:09:56.064Z,8.87
2019-04-29T09:12:29.063Z,7.40
2019-04-29T09:14:55.498Z,8.63
2019-04-29T09:17:24.972Z,8.47
2019-04-29T09:19:54.419Z,8.67
2019-04-29T09:22:25.505Z,8.17
2019-04-29T09:25:12.449Z,7.90
2019-04-29T09:27:44.946Z,10.07
2019-04-29T09:30:16.722Z,9.83
2019-04-29T09:32:46.148Z,11.33
2019-04-29T09:35:15.827Z,9.67
2019-04-29T09:37:45.283Z,9.50
2019-04-29T09:40:16.763Z,7.90
2019-04-29T09:42:50.205Z,9.20
2019-04-29T09:45:26.187Z,10.80
2019-04-29T09:47:55.648Z,10.33
2019-04-29T09:50:25.084Z,10.63
2019-04-29T09:52:55.312Z,10.47
2019-04-29T09:55:25.335Z,10.60
2019-04-29T09:57:54.761Z,10.27
2019-04-29T10:00:42.063Z,12.87
2019-04-29T10:03:16.157Z,10.50
2019-04-29T10:05:49.899Z,12.27
2019-04-29T10:08:19.349Z,12.70
2019-04-29T10:10:48.860Z,10.30
2019-04-29T10:13:18.467Z,13.03
2019-04-29T10:15:55.849Z,9.93
2019-04-29T10:18:33.964Z,11.00
2019-04-29T10:21:16.597Z,11.47
2019-04-29T10:23:45.272Z,9.67
2019-04-29T10:26:14.718Z,10.60
2019-04-29T10:29:00.997Z,11.00
2019-04-29T10:31:30.515Z,9.50
2019-04-29T10:33:59.950Z,10.97
2019-04-29T10:36:29.390Z,9.37
2019-04-29T10:39:00.475Z,9.37
2019-04-29T10:41:36.059Z,10.60
2019-04-29T10:44:09.145Z,15.10
2019-04-29T10:46:40.218Z,9.93
2019-04-29T10:49:23.481Z,9.70
2019-04-29T10:51:52.919Z,10.67
2019-04-29T10:54:22.364Z,9.73
2019-04-29T10:56:51.955Z,9.07
2019-04-29T10:59:34.977Z,9.43
2019-04-29T11:02:14.308Z,7.97
2019-04-29T11:04:41.483Z,8.20
2019-04-29T11:07:18.490Z,8.47
2019-04-29T11:09:53.077Z,9.57
2019-04-29T11:12:22.511Z,8.90
2019-04-29T11:14:51.966Z,12.00
2019-04-29T11:17:23.290Z,10.30
2019-04-29T11:19:52.725Z,8.40
2019-04-29T11:22:23.806Z,9.70
2019-04-29T11:24:55.078Z,10.50
2019-04-29T11:27:28.914Z,9.83
2019-04-29T11:30:02.377Z,9.00
2019-04-29T11:32:34.006Z,9.23
2019-04-29T11:35:24.553Z,7.67
2019-04-29T11:37:55.398Z,8.07
2019-04-29T11:40:26.028Z,8.10
2019-04-29T11:42:54.848Z,8.57
2019-04-29T11:45:24.520Z,10.47
2019-04-29T11:47:53.999Z,11.17
2019-04-29T11:50:26.934Z,10.07
2019-04-29T11:52:57.157Z,9.47
2019-04-29T11:55:26.630Z,9.37
2019-04-29T11:57:57.699Z,10.47
2019-04-29T12:00:44.402Z,9.47
2019-04-29T12:03:19.030Z,7.87
2019-04-29T12:05:50.898Z,8.33
2019-04-29T12:08:20.394Z,8.30
2019-04-29T12:11:06.227Z,8.10
2019-04-29T12:13:27.172Z,9.47
2019-04-29T12:15:58.837Z,7.57
2019-04-29T12:18:37.645Z,8.70
2019-04-29T12:21:11.504Z,7.17
2019-04-29T12:23:40.923Z,8.60
2019-04-29T12:26:10.627Z,10.00
2019-04-29T12:28:42.701Z,9.13
2019-04-29T12:31:28.687Z,8.53
2019-04-29T12:34:17.933Z,7.60
2019-04-29T12:36:56.215Z,10.20
2019-04-29T12:39:43.324Z,8.70
2019-04-29T12:42:21.122Z,8.90
2019-04-29T12:44:52.213Z,6.80
2019-04-29T12:47:27.242Z,6.57
2019-04-29T12:49:56.721Z,8.30
2019-04-29T12:52:26.441Z,8.77
2019-04-29T12:54:55.869Z,9.17
2019-04-29T12:57:25.336Z,6.73
2019-04-29T12:59:55.050Z,8.40
2019-04-29T13:02:42.173Z,8.30
2019-04-29T13:05:15.838Z,8.53
2019-04-29T13:07:49.571Z,6.40
2019-04-29T13:10:23.802Z,7.90
2019-04-29T13:12:53.243Z,6.27
2019-04-29T13:15:39.457Z,8.53
2019-04-29T13:18:15.933Z,7.10
2019-04-29T13:20:45.977Z,7.90
2019-04-29T13:23:19.527Z,7.30
2019-04-29T13:25:46.557Z,7.40
2019-04-29T13:28:29.524Z,10.17
2019-04-29T13:30:51.394Z,6.67
2019-04-29T13:33:19.341Z,7.27
2019-04-29T13:35:49.680Z,8.17
2019-04-29T13:38:19.174Z,8.30
2019-04-29T13:40:48.626Z,6.93
2019-04-29T13:43:20.792Z,6.50
2019-04-29T13:45:50.877Z,9.37
2019-04-29T13:48:24.444Z,10.70
2019-04-29T13:50:55.519Z,9.53
2019-04-29T13:53:25.339Z,8.50
2019-04-29T13:56:10.404Z,7.33
2019-04-29T13:58:27.220Z,10.50
2019-04-29T14:01:00.045Z,9.30
2019-04-29T14:03:37.341Z,8.77
2019-04-29T14:06:08.420Z,10.53
2019-04-29T14:08:37.948Z,8.57
2019-04-29T14:11:07.420Z,8.57
2019-04-29T14:13:38.860Z,8.47
2019-04-29T14:16:11.947Z,12.23
2019-04-29T14:18:39.253Z,10.80
2019-04-29T14:21:11.852Z,10.87
2019-04-29T14:23:39.855Z,8.73
2019-04-29T14:26:09.304Z,9.77
2019-04-29T14:28:38.730Z,9.60
2019-04-29T14:31:08.252Z,10.30
2019-04-29T14:33:47.949Z,10.87
2019-04-29T14:36:19.974Z,9.53
2019-04-29T14:38:48.579Z,10.80
2019-04-29T14:41:19.285Z,11.40
2019-04-29T14:43:54.908Z,11.13
2019-04-29T14:46:39.445Z,11.97
2019-04-29T14:49:13.193Z,9.73
2019-04-29T14:51:42.645Z,11.50
2019-04-29T14:54:12.088Z,16.60
2019-04-29T14:56:41.572Z,9.77
2019-04-29T14:59:11.089Z,11.07
2019-04-29T15:01:42.243Z,9.60
2019-04-29T15:04:18.606Z,18.13
2019-04-29T15:06:44.529Z,10.67
2019-04-29T15:09:17.803Z,13.83
2019-04-29T15:11:47.450Z,10.57
2019-04-29T15:14:34.581Z,11.20
2019-04-29T15:17:17.548Z,12.13
2019-04-29T15:19:49.427Z,10.67
2019-04-29T15:22:19.565Z,12.10
2019-04-29T15:24:49.036Z,13.90
2019-04-29T15:27:18.480Z,11.40
2019-04-29T15:29:47.922Z,10.87
2019-04-29T15:32:17.903Z,11.90
2019-04-29T15:34:49.783Z,11.23
2019-04-29T15:37:19.241Z,12.30
2019-04-29T15:39:48.701Z,12.97
2019-04-29T15:42:18.132Z,14.17
2019-04-29T15:44:51.371Z,14.00
2019-04-29T15:47:18.877Z,13.00
2019-04-29T15:49:48.322Z,15.20
2019-04-29T15:52:20.884Z,13.80
2019-04-29T15:54:51.018Z,15.07
2019-04-29T15:57:20.211Z,14.77
2019-04-29T15:59:58.877Z,14.80
2019-04-29T16:02:21.672Z,12.80
2019-04-29T16:04:58.161Z,12.10
2019-04-29T16:07:29.886Z,14.37
2019-04-29T16:10:07.862Z,12.33
2019-04-29T16:12:50.897Z,12.00
2019-04-29T16:15:18.827Z,14.97
2019-04-29T16:17:48.333Z,14.47
2019-04-29T16:20:17.789Z,11.13
2019-04-29T16:22:47.225Z,13.50
2019-04-29T16:25:16.677Z,15.80
2019-04-29T16:27:53.018Z,11.60
2019-04-29T16:30:19.131Z,15.83
2019-04-29T16:32:48.621Z,12.30
2019-04-29T16:35:23.859Z,12.70
2019-04-29T16:37:49.368Z,13.37
2019-04-29T16:40:19.132Z,12.20
2019-04-29T16:42:53.159Z,14.37
2019-04-29T16:45:24.256Z,14.93
2019-04-29T16:47:53.713Z,13.63
2019-04-29T16:50:23.162Z,12.07
2019-04-29T16:52:52.601Z,13.20
2019-04-29T16:55:22.123Z,12.23
2019-04-29T16:57:51.628Z,14.40
2019-04-29T17:00:23.057Z,11.97
2019-04-29T17:02:52.505Z,11.30
2019-04-29T17:05:21.957Z,12.90
2019-04-29T17:07:51.418Z,12.30
2019-04-29T17:10:31.330Z,10.17
2019-04-29T17:13:00.790Z,12.90
2019-04-29T17:15:30.656Z,15.83
2019-04-29T17:18:00.179Z,13.03
2019-04-29T17:20:29.711Z,13.77
2019-04-29T17:22:59.149Z,12.97
2019-04-29T17:25:28.612Z,13.43
2019-04-29T17:28:24.325Z,12.93
2019-04-29T17:31:11.740Z,16.17
2019-04-29T17:33:52.897Z,17.57
2019-04-29T17:36:24.077Z,16.27
2019-04-29T17:38:53.796Z,16.90
2019-04-29T17:41:23.233Z,17.13
2019-04-29T17:43:59.759Z,17.70
2019-04-29T17:46:46.643Z,17.70
2019-04-29T17:49:30.799Z,21.03
2019-04-29T17:52:02.759Z,18.20
2019-04-29T17:54:34.831Z,18.73
2019-04-29T17:57:25.559Z,21.23
2019-04-29T17:59:43.662Z,19.80
2019-04-29T18:02:31.071Z,20.30
2019-04-29T18:05:02.230Z,19.40
2019-04-29T18:07:45.096Z,19.00
2019-04-29T18:10:29.444Z,18.67
2019-04-29T18:12:58.460Z,23.17
2019-04-29T18:15:41.909Z,18.70
2019-04-29T18:18:07.266Z,21.00
2019-04-29T18:20:35.758Z,23.77
2019-04-29T18:23:19.100Z,24.27
2019-04-29T18:25:51.236Z,21.97
2019-04-29T18:28:20.693Z,20.20
2019-04-29T18:30:56.066Z,21.40
2019-04-29T18:33:23.443Z,21.40
2019-04-29T18:36:02.085Z,19.50
2019-04-29T18:38:26.205Z,22.13
2019-04-29T18:40:55.883Z,19.77
2019-04-29T18:43:26.572Z,23.50
2019-04-29T18:45:58.986Z,23.30
2019-04-29T18:48:27.548Z,20.23
2019-04-29T18:50:57.238Z,23.13
2019-04-29T18:53:26.708Z,19.90
2019-04-29T18:55:56.135Z,21.03
2019-04-29T18:58:25.589Z,19.67
2019-04-29T19:00:56.441Z,20.77
2019-04-29T19:03:39.357Z,17.20
2019-04-29T19:06:10.069Z,18.40
2019-04-29T19:08:40.678Z,18.83
2019-04-29T19:11:10.132Z,18.07
2019-04-29T19:13:39.640Z,18.03
2019-04-29T19:16:12.326Z,18.87
2019-04-29T19:18:40.245Z,16.87
2019-04-29T19:21:09.690Z,17.40
2019-04-29T19:23:39.136Z,15.43
2019-04-29T19:26:08.583Z,17.97
2019-04-29T19:28:38.035Z,17.90
2019-04-29T19:31:09.805Z,18.87
2019-04-29T19:33:39.473Z,16.20
2019-04-29T19:36:17.375Z,17.13
2019-04-29T19:38:43.291Z,17.50
2019-04-29T19:41:15.909Z,17.70
2019-04-29T19:43:42.614Z,16.00
2019-04-29T19:46:21.832Z,17.70
2019-04-29T19:48:45.008Z,16.37
2019-04-29T19:51:18.103Z,14.87
2019-04-29T19:53:49.440Z,12.97
2019-04-29T19:56:23.109Z,14.37
2019-04-29T19:58:48.542Z,13.67
2019-04-29T20:01:26.446Z,13.93
2019-04-29T20:03:57.745Z,13.90
2019-04-29T20:06:30.318Z,15.40
2019-04-29T20:09:02.034Z,15.83
2019-04-29T20:11:33.618Z,15.37
2019-04-29T20:14:05.306Z,15.50
2019-04-29T20:16:57.253Z,14.50
2019-04-29T20:19:37.900Z,18.17
2019-04-29T20:22:09.352Z,18.03
2019-04-29T20:24:38.909Z,21.07
2019-04-29T20:27:08.581Z,21.50
2019-04-29T20:29:38.883Z,19.40
2019-04-29T20:32:08.747Z,19.03
2019-04-29T20:34:38.407Z,21.27
2019-04-29T20:37:10.667Z,22.43
2019-04-29T20:39:39.191Z,18.80
2019-04-29T20:42:10.433Z,22.80
2019-04-29T20:44:44.809Z,22.87
2019-04-29T20:47:22.285Z,26.10
2019-04-29T20:49:42.314Z,23.60
2019-04-29T20:52:20.350Z,25.60
2019-04-29T20:54:45.191Z,30.57
2019-04-29T20:57:20.399Z,25.00
2019-04-29T20:59:50.292Z,22.90
2019-04-29T21:02:30.021Z,21.70
2019-04-29T21:04:49.549Z,24.80
2019-04-29T21:07:23.684Z,26.37
2019-04-29T21:09:50.246Z,23.47
2019-04-29T21:12:21.891Z,24.00
2019-04-29T21:15:01.849Z,25.00
2019-04-29T21:17:31.904Z,23.93
2019-04-29T21:20:01.545Z,23.50
2019-04-29T21:22:31.022Z,25.13
2019-04-29T21:25:00.482Z,24.97
2019-04-29T21:27:29.900Z,24.77
2019-04-29T21:29:59.321Z,25.87
2019-04-29T21:32:30.561Z,26.30
2019-04-29T21:35:18.414Z,26.40
2019-04-29T21:37:53.139Z,24.40
2019-04-29T21:40:26.931Z,22.53
2019-04-29T21:42:57.977Z,22.27
2019-04-29T21:45:27.426Z,26.40
2019-04-29T21:47:56.854Z,23.10
2019-04-29T21:50:29.059Z,24.17
2019-04-29T21:53:02.058Z,22.27
2019-04-29T21:55:29.488Z,22.77
2019-04-29T21:58:00.137Z,27.23
2019-04-29T22:00:30.115Z,23.80
2019-04-29T22:02:59.542Z,23.07
2019-04-29T22:05:29.048Z,22.30
2019-04-29T22:07:58.576Z,22.57
2019-04-29T22:10:29.057Z,23.50
2019-04-29T22:13:02.151Z,24.03
2019-04-29T22:15:33.349Z,21.30
2019-04-29T22:18:01.805Z,23.83
2019-04-29T22:20:35.587Z,23.77
2019-04-29T22:23:08.369Z,26.40
2019-04-29T22:25:36.673Z,25.83
2019-04-29T22:28:06.213Z,23.07
2019-04-29T22:30:35.665Z,21.17
2019-04-29T22:33:05.319Z,21.43
2019-04-29T22:35:37.276Z,22.80
2019-04-29T22:38:07.881Z,21.97
2019-04-29T22:40:41.306Z,23.47
2019-04-29T22:43:10.377Z,25.10
2019-04-29T22:45:39.791Z,26.40
2019-04-29T22:48:14.821Z,21.77
2019-04-29T22:50:40.415Z,22.80
2019-04-29T22:53:09.856Z,20.47
2019-04-29T22:55:39.322Z,22.23
2019-04-29T22:58:10.127Z,23.53
2019-04-29T23:00:39.740Z,23.80
2019-04-29T23:03:09.192Z,23.47
2019-04-29T23:05:38.621Z,19.17
2019-04-29T23:08:08.060Z,21.60
2019-04-29T23:10:37.503Z,19.10
2019-04-29T23:13:06.947Z,21.80
2019-04-29T23:15:36.422Z,20.47
2019-04-29T23:18:06.939Z,21.00
2019-04-29T23:20:55.270Z,23.47
2019-04-29T23:23:33.711Z,21.90
2019-04-29T23:26:04.128Z,24.30
2019-04-29T23:28:31.988Z,25.10
2019-04-29T23:31:01.540Z,21.47
2019-04-29T23:33:31.028Z,21.93
2019-04-29T23:36:00.515Z,21.10
2019-04-29T23:38:30.084Z,23.20
2019-04-29T23:40:59.559Z,23.57
2019-04-29T23:43:28.998Z,24.30
2019-04-29T23:46:00.453Z,22.10
2019-04-29T23:48:38.860Z,25.50
2019-04-29T23:51:00.770Z,21.70
2019-04-29T23:53:30.200Z,23.83
2019-04-29T23:56:04.292Z,25.60
2019-04-29T23:58:37.022Z,27.00
